Billings, MT (59101)

12:32 PM MDT on September 01, 2015 (GMT -0600)
South of Castle Rock Park | | Change Station
CLOSE
Current Station
Personal Weather Station
Location: Billings, MT
Elevation: 3297 ft
Nearby Weather Stations

Elev 3297 ft 45.82 °N, 108.50 °W | Updated 3 seconds ago

Clear
Clear
88.0 °F
Feels Like 85 °F
N
2.2
Wind Variable Wind from NNW
Gusts 3.4 mph

Today
High -- | Low -- °F
--% Chance of Precip.
Yesterday
High -- | Low -- °F
Precip. -- in
6:34 AM 7:52 PM
Waning Gibbous, 87% visible
Pressure 29.77 in
Visibility 10.0 miles
Clouds Few 11000 ft
Heat Index 85 °F
Dew Point 43 °F
Humidity 21%
Rainfall 0.00 in
Snow Depth Not available.
UV 7 out of 12
Pollen 9.10 out of 12
Air Quality Not available.
Flu Activity Not available.
METAR KBIL 011753Z 23006KT 10SM FEW110 28/M01 A2988 RMK AO2 SLP081 T02831011 10283 20111 58004
Pressure 29.77 in
Visibility 10.0 miles
Clouds Few 11000 ft
Heat Index 85 °F
Dew Point 43 °F
Humidity 21%
Rainfall 0.00 in
Snow Depth Not available.
UV 7 out of 12
Pollen 9.10 out of 12
Air Quality Not available.
Flu Activity Not available.
METAR KBIL 011753Z 23006KT 10SM FEW110 28/M01 A2988 RMK AO2 SLP081 T02831011 10283 20111 58004

10-Day Weather Forecast

×

Almanac

Astronomy

Sep. 01, 2015 Rise Set
Actual Time
Civil Twilight
Nautical Twilight
Astronomical Twilight
Moon
Length of Visible Light
Length of Day
Tomorrow will be .
, % of the Moon is Illuminated

Today's Extremes

State Highs State Lows

Community

WunderPhotos

Upload Photos

1,851,593 photos uploaded!

WunderBlogs® & News

Nearby

Air Quality

  Air Quality AQ Index Pollutant
Not available.

Snow Depth

Station Depth Elevation

Earthquake Activity

City Distance Mag. Time & Date
Minimum magnitude displayed is 2.5.

Coastal Water Temperatures

Place Temperature

Stations

Nearby Weather Stations

Station Location Temp. Windchill Dew Point Humidity Wind Precip. Elev Updated Type